Terminal Aerodrome Forecast
Issued by NWS

Home | Current Version | Previous Version | Text Only | Print | Product List | Glossary On
Versions: 1 2 3 4 5 6 7 8 9 10 11 12 13 14 15 16 17 18 19 20 21
333
FTUS43 KDVN 210520
TAFBRL
TAF
KBRL 210520Z 2106/2206 07009KT P6SM VCSH OVC035
     FM210700 07007KT 5SM -SHRA BR OVC009
     FM211500 04005KT P6SM OVC015
     FM212100 33005KT P6SM BKN030=

USA.gov is the U.S. government's official web portal to all federal, state and local government web resources and services.